createdAt,value
2023-03-03T00:01:43.937Z,2.94
2023-03-03T00:04:11.468Z,2.93
2023-03-03T00:06:39.386Z,2.88
2023-03-03T00:09:08.289Z,2.78
2023-03-03T00:11:35.887Z,2.79
2023-03-03T00:14:03.451Z,2.88
2023-03-03T00:16:33.520Z,3.02
2023-03-03T00:19:01.209Z,2.97
2023-03-03T00:21:31.257Z,2.95
2023-03-03T00:24:19.229Z,2.99
2023-03-03T00:26:47.876Z,2.92
2023-03-03T00:29:28.396Z,2.77
2023-03-03T00:31:56.345Z,2.74
2023-03-03T00:34:27.133Z,2.53
2023-03-03T00:36:55.979Z,2.49
2023-03-03T00:39:29.215Z,2.48
2023-03-03T00:41:57.232Z,2.36
2023-03-03T00:44:43.706Z,2.35
2023-03-03T00:47:20.245Z,2.43
2023-03-03T00:49:47.803Z,2.44
2023-03-03T00:52:18.282Z,2.50
2023-03-03T00:54:47.324Z,2.54
2023-03-03T00:57:14.911Z,2.54
2023-03-03T00:59:42.445Z,2.54
2023-03-03T01:02:10.126Z,2.60
2023-03-03T01:04:37.858Z,2.56
2023-03-03T01:07:05.433Z,2.62
2023-03-03T01:09:33.001Z,2.50
2023-03-03T01:12:01.957Z,2.38
2023-03-03T01:14:29.549Z,2.35
2023-03-03T01:16:57.227Z,2.35
2023-03-03T01:19:24.799Z,2.45
2023-03-03T01:21:52.637Z,2.43
2023-03-03T01:24:20.157Z,2.47
2023-03-03T01:26:47.855Z,2.53
2023-03-03T01:29:16.745Z,2.51
2023-03-03T01:31:44.546Z,2.34
2023-03-03T01:34:12.168Z,2.23
2023-03-03T01:36:39.853Z,2.18
2023-03-03T01:39:07.483Z,2.16
2023-03-03T01:41:35.010Z,2.14
2023-03-03T01:44:02.828Z,2.10
2023-03-03T01:46:43.821Z,2.01
2023-03-03T01:49:14.566Z,2.01
2023-03-03T01:51:48.452Z,1.92
2023-03-03T01:54:19.925Z,2.02
2023-03-03T01:56:48.010Z,2.00
2023-03-03T01:59:18.392Z,2.03
2023-03-03T02:01:48.516Z,1.82
2023-03-03T02:04:16.498Z,1.82
2023-03-03T02:06:48.749Z,1.82
2023-03-03T02:09:20.163Z,1.89
2023-03-03T02:11:50.375Z,1.78
2023-03-03T02:14:17.957Z,1.79
2023-03-03T02:16:47.021Z,1.76
2023-03-03T02:19:20.461Z,1.78
2023-03-03T02:21:48.011Z,1.75
2023-03-03T02:24:19.622Z,1.68
2023-03-03T02:26:49.044Z,1.50
2023-03-03T02:29:16.663Z,1.54
2023-03-03T02:31:44.273Z,1.55
2023-03-03T02:34:11.986Z,1.62
2023-03-03T02:36:41.002Z,1.58
2023-03-03T02:39:11.509Z,1.39
2023-03-03T02:41:42.723Z,1.31
2023-03-03T02:44:13.299Z,1.34
2023-03-03T02:46:43.067Z,1.38
2023-03-03T02:49:12.650Z,1.41
2023-03-03T02:51:40.506Z,1.40
2023-03-03T02:54:09.342Z,1.33
2023-03-03T02:56:37.542Z,1.29
2023-03-03T02:59:05.308Z,1.26
2023-03-03T03:01:37.077Z,1.20
2023-03-03T03:04:08.348Z,1.19
2023-03-03T03:06:36.920Z,1.19
2023-03-03T03:09:04.983Z,1.16
2023-03-03T03:11:32.925Z,1.20
2023-03-03T03:14:00.547Z,1.07
2023-03-03T03:16:28.326Z,1.09
2023-03-03T03:18:57.335Z,1.06
2023-03-03T03:21:24.878Z,1.03
2023-03-03T03:23:52.515Z,0.94
2023-03-03T03:26:21.134Z,0.89
2023-03-03T03:28:48.979Z,0.90
2023-03-03T03:31:16.770Z,0.95
2023-03-03T03:33:44.539Z,0.93
2023-03-03T03:36:13.558Z,0.84
2023-03-03T03:38:41.168Z,0.76
2023-03-03T03:41:09.077Z,0.82
2023-03-03T03:43:37.028Z,0.76
2023-03-03T03:46:04.920Z,0.72
2023-03-03T03:48:32.656Z,0.77
2023-03-03T03:51:00.194Z,0.66
2023-03-03T03:53:29.061Z,0.61
2023-03-03T03:55:56.707Z,0.64
2023-03-03T03:58:24.230Z,0.59
2023-03-03T04:00:51.815Z,0.56
2023-03-03T04:03:19.520Z,0.60
2023-03-03T04:05:47.117Z,0.57
2023-03-03T04:08:14.704Z,0.56
2023-03-03T04:10:43.848Z,0.46
2023-03-03T04:13:11.492Z,0.48
2023-03-03T04:15:39.044Z,0.44
2023-03-03T04:18:06.696Z,0.46
2023-03-03T04:20:34.356Z,0.43
2023-03-03T04:23:02.052Z,0.46
2023-03-03T04:25:29.588Z,0.39
2023-03-03T04:27:58.517Z,0.34
2023-03-03T04:30:26.927Z,0.28
2023-03-03T04:32:54.645Z,0.22
2023-03-03T04:35:22.304Z,0.28
2023-03-03T04:37:49.890Z,0.28
2023-03-03T04:40:20.672Z,0.23
2023-03-03T04:42:48.310Z,0.36
2023-03-03T04:45:17.518Z,0.30
2023-03-03T04:47:45.095Z,0.35
2023-03-03T04:50:12.914Z,0.27
2023-03-03T04:52:40.463Z,0.25
2023-03-03T04:55:10.588Z,0.20
2023-03-03T04:57:38.404Z,0.15
2023-03-03T05:00:07.285Z,-0.01
2023-03-03T05:02:36.325Z,-0.06
2023-03-03T05:05:04.089Z,0.05
2023-03-03T05:07:31.784Z,0.17
2023-03-03T05:09:59.300Z,0.20
2023-03-03T05:12:26.957Z,0.21
2023-03-03T05:14:54.522Z,0.15
2023-03-03T05:17:22.105Z,0.10
2023-03-03T05:19:51.059Z,0.17
2023-03-03T05:22:18.606Z,0.24
2023-03-03T05:24:49.006Z,0.18
2023-03-03T05:27:16.697Z,0.11
2023-03-03T05:29:44.460Z,0.08
2023-03-03T05:32:12.283Z,0.04
2023-03-03T05:34:40.073Z,0.01
2023-03-03T05:37:09.072Z,-0.07
2023-03-03T05:39:39.616Z,-0.05
2023-03-03T05:42:07.389Z,-0.40
2023-03-03T05:44:34.947Z,-0.02
2023-03-03T05:47:02.478Z,-0.13
2023-03-03T05:49:29.990Z,-0.03
2023-03-03T05:51:59.112Z,0.03
2023-03-03T05:54:28.068Z,-0.09
2023-03-03T05:56:57.220Z,-0.19
2023-03-03T05:59:24.811Z,0.01
2023-03-03T06:01:52.389Z,-0.15
2023-03-03T06:04:20.009Z,-0.22
2023-03-03T06:06:47.564Z,-0.20
2023-03-03T06:09:15.523Z,-0.09
2023-03-03T06:11:44.478Z,-0.13
2023-03-03T06:14:12.110Z,-0.22
2023-03-03T06:16:39.690Z,-0.23
2023-03-03T06:19:07.271Z,-0.32
2023-03-03T06:21:34.870Z,-0.29
2023-03-03T06:24:02.406Z,-0.34
2023-03-03T06:26:30.005Z,-0.30
2023-03-03T06:28:59.028Z,-0.60
2023-03-03T06:31:27.135Z,-0.28
2023-03-03T06:33:55.016Z,-0.10
2023-03-03T06:36:23.512Z,-0.08
2023-03-03T06:38:51.202Z,-0.02
2023-03-03T06:41:18.771Z,-0.06
2023-03-03T06:43:46.353Z,-0.01
2023-03-03T06:46:15.298Z,-0.05
2023-03-03T06:48:42.914Z,-0.20
2023-03-03T06:51:21.730Z,0.03
2023-03-03T06:53:49.813Z,0.02
2023-03-03T06:56:18.352Z,0.09
2023-03-03T06:58:45.909Z,0.01
2023-03-03T07:01:18.070Z,0.32
2023-03-03T07:03:45.804Z,0.43
2023-03-03T07:06:22.473Z,0.48
2023-03-03T07:08:50.421Z,0.47
2023-03-03T07:11:20.484Z,0.34
2023-03-03T07:13:49.394Z,0.43
2023-03-03T07:16:20.342Z,0.33
2023-03-03T07:18:51.295Z,0.42
2023-03-03T07:21:20.460Z,0.43
2023-03-03T07:23:49.708Z,0.75
2023-03-03T07:26:19.433Z,0.59
2023-03-03T07:28:54.076Z,0.70
2023-03-03T07:31:28.745Z,0.73
2023-03-03T07:33:56.982Z,0.92
2023-03-03T07:36:28.613Z,0.89
2023-03-03T07:38:57.602Z,0.92
2023-03-03T07:41:25.226Z,0.98
2023-03-03T07:43:54.917Z,1.08
2023-03-03T07:46:36.126Z,1.24
2023-03-03T07:49:11.693Z,1.19
2023-03-03T07:51:42.051Z,1.27
2023-03-03T07:54:31.856Z,1.24
2023-03-03T07:57:04.065Z,1.23
2023-03-03T07:59:32.152Z,1.30
2023-03-03T08:02:01.489Z,1.43
2023-03-03T08:04:31.042Z,1.24
2023-03-03T08:06:59.386Z,1.51
2023-03-03T08:09:48.466Z,1.16
2023-03-03T08:12:33.010Z,1.21
2023-03-03T08:15:16.357Z,1.04
2023-03-03T08:17:46.032Z,1.06
2023-03-03T08:20:38.580Z,1.24
2023-03-03T08:23:06.180Z,1.27
2023-03-03T08:25:33.772Z,1.36
2023-03-03T08:28:01.322Z,1.71
2023-03-03T08:30:28.973Z,1.70
2023-03-03T08:32:57.936Z,1.81
2023-03-03T08:35:25.583Z,1.89
2023-03-03T08:37:53.100Z,1.91
2023-03-03T08:40:20.712Z,2.02
2023-03-03T08:42:48.938Z,2.00
2023-03-03T08:45:16.763Z,2.35
2023-03-03T08:47:44.792Z,2.23
2023-03-03T08:50:14.564Z,2.13
2023-03-03T08:52:42.229Z,2.29
2023-03-03T08:55:10.211Z,2.20
2023-03-03T08:57:39.043Z,2.32
2023-03-03T09:00:09.102Z,2.41
2023-03-03T09:02:36.705Z,2.18
2023-03-03T09:05:04.724Z,2.27
2023-03-03T09:07:33.733Z,2.54
2023-03-03T09:10:01.402Z,2.58
2023-03-03T09:12:31.498Z,2.48
2023-03-03T09:15:01.701Z,2.52
2023-03-03T09:17:31.837Z,2.61
2023-03-03T09:20:02.815Z,2.79
2023-03-03T09:22:30.450Z,2.84
2023-03-03T09:25:00.413Z,3.11
2023-03-03T09:27:30.533Z,3.31
2023-03-03T09:29:58.738Z,3.26
2023-03-03T09:32:33.117Z,3.42
2023-03-03T09:35:01.282Z,3.41
2023-03-03T09:37:32.415Z,3.18
2023-03-03T09:40:01.412Z,3.35
2023-03-03T09:42:42.919Z,3.74
2023-03-03T09:45:37.041Z,3.63
2023-03-03T09:48:24.097Z,3.37
2023-03-03T09:51:00.682Z,3.40
2023-03-03T09:53:38.656Z,3.72
2023-03-03T09:56:12.422Z,3.84
2023-03-03T09:58:53.039Z,3.96
2023-03-03T10:01:35.136Z,3.92
2023-03-03T10:04:15.338Z,4.25
2023-03-03T10:06:46.912Z,4.44
2023-03-03T10:09:48.346Z,4.69
2023-03-03T10:12:22.513Z,4.29
2023-03-03T10:15:08.449Z,4.30
2023-03-03T10:17:45.687Z,4.38
2023-03-03T10:20:49.195Z,4.45
2023-03-03T10:23:23.420Z,4.58
2023-03-03T10:25:55.508Z,4.75
2023-03-03T10:28:53.698Z,4.63
2023-03-03T10:31:29.349Z,4.91
2023-03-03T10:34:00.381Z,4.95
2023-03-03T10:36:46.626Z,5.13
2023-03-03T10:39:26.857Z,5.23
2023-03-03T10:42:08.360Z,5.37
2023-03-03T10:44:56.923Z,5.27
2023-03-03T10:47:48.569Z,5.27
2023-03-03T10:50:22.613Z,5.23
2023-03-03T10:52:53.486Z,5.28
2023-03-03T10:55:39.942Z,5.52
2023-03-03T10:58:29.299Z,5.65
2023-03-03T11:01:07.102Z,5.70
2023-03-03T11:03:43.468Z,5.38
2023-03-03T11:06:16.290Z,5.55
2023-03-03T11:08:47.533Z,5.66
2023-03-03T11:11:18.370Z,5.82
2023-03-03T11:13:49.413Z,5.80
2023-03-03T11:16:32.910Z,5.71
2023-03-03T11:19:11.402Z,5.93
2023-03-03T11:21:43.111Z,5.75
2023-03-03T11:24:24.768Z,5.95
2023-03-03T11:27:02.445Z,6.05
2023-03-03T11:29:43.478Z,6.24
2023-03-03T11:32:22.278Z,6.27
2023-03-03T11:34:57.852Z,6.19
2023-03-03T11:37:31.002Z,6.30
2023-03-03T11:40:03.877Z,6.56
2023-03-03T11:42:38.561Z,6.35
2023-03-03T11:45:14.101Z,6.35
2023-03-03T11:47:48.556Z,6.33
2023-03-03T11:50:20.124Z,6.40
2023-03-03T11:52:53.237Z,6.51
2023-03-03T11:55:25.017Z,6.42
2023-03-03T11:57:57.142Z,6.43
2023-03-03T12:00:32.563Z,6.15
2023-03-03T12:03:13.223Z,6.61
2023-03-03T12:05:48.505Z,6.80
2023-03-03T12:08:24.916Z,6.71
2023-03-03T12:10:58.513Z,6.84
2023-03-03T12:13:31.351Z,6.86
2023-03-03T12:16:06.714Z,6.80
2023-03-03T12:19:03.329Z,6.69
2023-03-03T12:21:42.576Z,6.84
2023-03-03T12:24:20.710Z,6.66
2023-03-03T12:26:52.845Z,6.72
2023-03-03T12:29:28.658Z,6.78
2023-03-03T12:32:06.067Z,6.95
2023-03-03T12:34:40.121Z,7.09
2023-03-03T12:37:17.019Z,7.37
2023-03-03T12:39:55.016Z,7.05
2023-03-03T12:42:30.360Z,7.24
2023-03-03T12:45:06.486Z,7.47
2023-03-03T12:47:38.813Z,7.51
2023-03-03T12:50:24.617Z,7.56
2023-03-03T12:52:56.791Z,7.42
2023-03-03T12:55:32.111Z,7.37
2023-03-03T12:58:05.559Z,7.23
2023-03-03T13:00:44.840Z,7.40
2023-03-03T13:03:28.348Z,7.58
2023-03-03T13:06:07.548Z,7.47
2023-03-03T13:08:45.978Z,7.29
2023-03-03T13:11:25.513Z,7.58
2023-03-03T13:13:55.219Z,7.55
2023-03-03T13:16:40.345Z,7.66
2023-03-03T13:19:10.963Z,7.90
2023-03-03T13:21:42.591Z,7.74
2023-03-03T13:24:17.652Z,8.00
2023-03-03T13:26:49.057Z,7.51
2023-03-03T13:29:21.436Z,7.46
2023-03-03T13:31:50.884Z,7.62
2023-03-03T13:34:26.765Z,7.60
2023-03-03T13:36:59.303Z,7.78
2023-03-03T13:39:29.379Z,7.91
2023-03-03T13:41:58.531Z,8.20
2023-03-03T13:44:31.199Z,8.32
2023-03-03T13:47:09.956Z,8.55
2023-03-03T13:49:47.700Z,8.43
2023-03-03T13:52:22.141Z,8.40
2023-03-03T13:54:56.257Z,8.39
2023-03-03T13:57:39.816Z,8.35
2023-03-03T14:00:17.639Z,7.98
2023-03-03T14:02:55.459Z,8.08
2023-03-03T14:05:28.114Z,7.89
2023-03-03T14:08:00.341Z,8.05
2023-03-03T14:10:31.537Z,8.15
2023-03-03T14:13:04.504Z,8.09
2023-03-03T14:15:34.391Z,8.10
2023-03-03T14:18:15.411Z,8.16
2023-03-03T14:20:46.235Z,7.91
2023-03-03T14:23:18.483Z,7.88
2023-03-03T14:25:54.303Z,8.08
2023-03-03T14:28:23.748Z,8.08
2023-03-03T14:30:55.149Z,8.09
2023-03-03T14:33:26.142Z,8.32
2023-03-03T14:36:06.892Z,8.29
2023-03-03T14:38:41.544Z,8.50
2023-03-03T14:41:16.035Z,7.99
2023-03-03T14:43:45.297Z,8.30
2023-03-03T14:46:33.506Z,8.36
2023-03-03T14:49:03.078Z,8.49
2023-03-03T14:51:34.655Z,8.38
2023-03-03T14:54:09.604Z,8.45
2023-03-03T14:56:39.307Z,8.49
2023-03-03T14:59:19.234Z,8.45
2023-03-03T15:01:47.840Z,8.44
2023-03-03T15:04:26.036Z,8.17
2023-03-03T15:06:54.847Z,8.16
2023-03-03T15:09:36.541Z,8.26
2023-03-03T15:12:06.864Z,8.02
2023-03-03T15:14:38.412Z,8.13
2023-03-03T15:17:27.126Z,8.12
2023-03-03T15:20:14.721Z,8.03
2023-03-03T15:22:48.681Z,8.14
2023-03-03T15:25:41.819Z,7.94
2023-03-03T15:28:23.454Z,8.09
2023-03-03T15:30:54.482Z,7.91
2023-03-03T15:33:30.417Z,7.98
2023-03-03T15:36:04.321Z,7.92
2023-03-03T15:38:42.001Z,7.88
2023-03-03T15:41:27.503Z,7.87
2023-03-03T15:44:03.706Z,7.80
2023-03-03T15:46:40.257Z,7.85
2023-03-03T15:49:17.925Z,7.86
2023-03-03T15:52:03.178Z,7.83
2023-03-03T15:54:37.438Z,7.76
2023-03-03T15:57:16.245Z,7.61
2023-03-03T16:00:04.492Z,7.73
2023-03-03T16:02:40.476Z,7.50
2023-03-03T16:05:16.286Z,7.55
2023-03-03T16:07:51.490Z,7.63
2023-03-03T16:10:26.016Z,7.47
2023-03-03T16:13:01.242Z,7.32
2023-03-03T16:15:38.220Z,7.31
2023-03-03T16:18:14.303Z,7.18
2023-03-03T16:20:47.120Z,7.07
2023-03-03T16:23:31.757Z,6.98
2023-03-03T16:26:04.987Z,6.91
2023-03-03T16:28:44.710Z,6.90
2023-03-03T16:31:14.934Z,6.84
2023-03-03T16:33:45.442Z,6.81
2023-03-03T16:36:19.928Z,6.73
2023-03-03T16:38:52.254Z,6.66
2023-03-03T16:41:22.825Z,6.45
2023-03-03T16:44:02.583Z,6.34
2023-03-03T16:46:33.610Z,6.18
2023-03-03T16:49:06.117Z,6.17
2023-03-03T16:51:40.561Z,5.97
2023-03-03T16:54:10.561Z,5.90
2023-03-03T16:56:44.292Z,5.73
2023-03-03T16:59:38.554Z,5.82
2023-03-03T17:02:27.160Z,5.51
2023-03-03T17:04:59.239Z,5.40
2023-03-03T17:07:41.174Z,5.31
2023-03-03T17:10:23.027Z,5.19
2023-03-03T17:13:10.349Z,5.08
2023-03-03T17:15:45.636Z,5.09
2023-03-03T17:18:16.039Z,4.94
2023-03-03T17:20:49.340Z,4.94
2023-03-03T17:23:31.499Z,4.80
2023-03-03T17:26:06.866Z,4.70
2023-03-03T17:28:43.945Z,4.57
2023-03-03T17:31:18.399Z,4.62
2023-03-03T17:34:16.092Z,4.47
2023-03-03T17:36:54.827Z,4.33
2023-03-03T17:39:42.633Z,4.22
2023-03-03T17:42:17.346Z,4.18
2023-03-03T17:44:51.883Z,4.04
2023-03-03T17:47:31.358Z,4.04
2023-03-03T17:50:09.554Z,4.00
2023-03-03T17:52:59.489Z,3.91
2023-03-03T17:55:34.619Z,3.78
2023-03-03T17:58:14.453Z,3.73
2023-03-03T18:00:51.743Z,3.71
2023-03-03T18:03:37.694Z,3.71
2023-03-03T18:06:27.271Z,3.57
2023-03-03T18:09:18.238Z,3.50
2023-03-03T18:11:58.090Z,3.43
2023-03-03T18:14:46.872Z,3.37
2023-03-03T18:17:31.382Z,3.36
2023-03-03T18:20:13.200Z,3.25
2023-03-03T18:22:45.478Z,3.26
2023-03-03T18:25:15.180Z,3.09
2023-03-03T18:27:43.566Z,3.02
2023-03-03T18:30:35.150Z,3.00
2023-03-03T18:33:08.564Z,2.95
2023-03-03T18:35:38.904Z,2.87
2023-03-03T18:38:30.968Z,2.86
2023-03-03T18:40:59.964Z,2.69
2023-03-03T18:43:55.625Z,2.74
2023-03-03T18:46:51.530Z,2.57
2023-03-03T18:49:19.632Z,2.58
2023-03-03T18:51:52.893Z,2.48
2023-03-03T18:54:31.015Z,2.43
2023-03-03T18:57:17.063Z,2.44
2023-03-03T18:59:56.735Z,2.41
2023-03-03T19:02:46.256Z,2.31
2023-03-03T19:05:20.426Z,2.40
2023-03-03T19:07:53.325Z,2.28
2023-03-03T19:10:57.367Z,2.15
2023-03-03T19:13:46.748Z,2.09
2023-03-03T19:16:36.583Z,2.06
2023-03-03T19:19:09.872Z,2.01
2023-03-03T19:21:38.916Z,1.97
2023-03-03T19:24:27.224Z,2.05
2023-03-03T19:27:00.192Z,1.96
2023-03-03T19:29:51.753Z,1.95
2023-03-03T19:32:32.177Z,1.85
2023-03-03T19:35:11.117Z,1.80
2023-03-03T19:37:47.157Z,1.74
2023-03-03T19:40:23.059Z,1.66
2023-03-03T19:42:58.636Z,1.73
2023-03-03T19:45:35.510Z,1.66
2023-03-03T19:48:07.734Z,1.61
2023-03-03T19:50:45.159Z,1.58
2023-03-03T19:53:22.635Z,1.51
2023-03-03T19:56:01.688Z,1.49
2023-03-03T19:58:32.769Z,1.48
2023-03-03T20:01:08.283Z,1.45
2023-03-03T20:03:49.717Z,1.31
2023-03-03T20:06:27.161Z,1.28
2023-03-03T20:09:00.671Z,1.25
2023-03-03T20:11:47.905Z,0.99
2023-03-03T20:14:28.771Z,1.16
2023-03-03T20:17:01.241Z,1.12
2023-03-03T20:19:41.176Z,1.05
2023-03-03T20:22:10.632Z,1.10
2023-03-03T20:24:47.740Z,1.11
2023-03-03T20:27:18.798Z,0.96
2023-03-03T20:30:08.536Z,1.05
2023-03-03T20:32:59.133Z,0.89
2023-03-03T20:35:33.857Z,1.04
2023-03-03T20:38:10.121Z,0.91
2023-03-03T20:40:41.317Z,0.92
2023-03-03T20:43:20.768Z,0.84
2023-03-03T20:45:57.308Z,0.86
2023-03-03T20:48:35.157Z,0.81
2023-03-03T20:51:06.879Z,0.86
2023-03-03T20:53:42.058Z,0.78
2023-03-03T20:56:12.900Z,0.79
2023-03-03T20:58:53.869Z,0.67
2023-03-03T21:01:27.413Z,0.59
2023-03-03T21:03:56.634Z,0.65
2023-03-03T21:06:25.478Z,0.56
2023-03-03T21:08:54.358Z,0.56
2023-03-03T21:11:23.214Z,0.43
2023-03-03T21:13:54.197Z,0.47
2023-03-03T21:16:32.846Z,0.46
2023-03-03T21:19:02.992Z,0.45
2023-03-03T21:21:32.782Z,0.44
2023-03-03T21:24:00.434Z,0.38
2023-03-03T21:26:52.466Z,0.35
2023-03-03T21:29:24.179Z,0.46
2023-03-03T21:31:53.357Z,0.41
2023-03-03T21:34:24.482Z,0.18
2023-03-03T21:36:52.795Z,0.22
2023-03-03T21:39:22.846Z,0.28
2023-03-03T21:41:58.465Z,0.22
2023-03-03T21:44:41.545Z,0.21
2023-03-03T21:47:10.668Z,0.16
2023-03-03T21:49:41.770Z,0.23
2023-03-03T21:52:09.716Z,0.13
2023-03-03T21:54:37.784Z,0.11
2023-03-03T21:57:05.628Z,0.07
2023-03-03T21:59:34.638Z,0.04
2023-03-03T22:02:02.177Z,0.04
2023-03-03T22:04:29.779Z,-0.04
2023-03-03T22:06:57.650Z,-0.13
2023-03-03T22:09:25.271Z,-0.05
2023-03-03T22:11:52.869Z,0.03
2023-03-03T22:14:20.445Z,-0.07
2023-03-03T22:16:49.297Z,-0.12
2023-03-03T22:19:16.819Z,-0.25
2023-03-03T22:21:44.574Z,-0.21
2023-03-03T22:24:12.912Z,-0.20
2023-03-03T22:26:40.549Z,-0.13
2023-03-03T22:29:08.203Z,-0.13
2023-03-03T22:31:35.862Z,-0.16
2023-03-03T22:34:05.291Z,-0.17
2023-03-03T22:36:33.163Z,-0.08
2023-03-03T22:39:02.066Z,-0.19
2023-03-03T22:41:30.166Z,-0.21
2023-03-03T22:43:58.431Z,-0.22
2023-03-03T22:46:26.670Z,-0.28
2023-03-03T22:48:55.441Z,-0.21
2023-03-03T22:51:24.652Z,-0.17
2023-03-03T22:53:52.183Z,-0.17
2023-03-03T22:56:19.788Z,-0.19
2023-03-03T22:58:47.482Z,-0.19
2023-03-03T23:01:15.084Z,-0.22
2023-03-03T23:03:42.663Z,-0.26
2023-03-03T23:06:10.240Z,-0.30
2023-03-03T23:08:39.234Z,-0.30
2023-03-03T23:11:06.798Z,-0.25
2023-03-03T23:13:35.247Z,-0.38
2023-03-03T23:16:02.995Z,-0.30
2023-03-03T23:18:30.740Z,-0.35
2023-03-03T23:20:58.450Z,-0.42
2023-03-03T23:23:26.013Z,-0.44
2023-03-03T23:25:54.886Z,-0.41
2023-03-03T23:28:22.400Z,-0.41
2023-03-03T23:30:52.093Z,-0.34
2023-03-03T23:33:19.919Z,-0.38
2023-03-03T23:35:48.875Z,-0.34
2023-03-03T23:38:17.653Z,-0.49
2023-03-03T23:40:46.674Z,-0.52
2023-03-03T23:43:15.930Z,-0.63
2023-03-03T23:45:43.509Z,-0.69
2023-03-03T23:48:11.373Z,-0.66
2023-03-03T23:50:39.270Z,-0.65
2023-03-03T23:53:07.303Z,-0.66
2023-03-03T23:55:34.970Z,-0.72
2023-03-03T23:58:02.579Z,-0.80
